createdAt,value
2023-04-05T00:01:51.257Z,8.73
2023-04-05T00:04:21.249Z,10.88
2023-04-05T00:06:52.894Z,12.60
2023-04-05T00:09:25.163Z,9.93
2023-04-05T00:11:54.410Z,12.77
2023-04-05T00:14:25.046Z,8.73
2023-04-05T00:16:54.184Z,12.45
2023-04-05T00:19:23.706Z,11.35
2023-04-05T00:21:54.766Z,8.20
2023-04-05T00:24:24.620Z,16.08
2023-04-05T00:26:53.685Z,10.50
2023-04-05T00:29:22.806Z,11.93
2023-04-05T00:31:52.324Z,9.27
2023-04-05T00:34:21.602Z,8.77
2023-04-05T00:36:50.825Z,12.80
2023-04-05T00:39:23.689Z,12.68
2023-04-05T00:41:53.089Z,9.02
2023-04-05T00:44:22.502Z,8.90
2023-04-05T00:46:52.421Z,10.88
2023-04-05T00:49:21.617Z,13.27
2023-04-05T00:51:52.431Z,11.35
2023-04-05T00:54:21.934Z,16.45
2023-04-05T00:56:53.484Z,13.93
2023-04-05T00:59:22.954Z,7.95
2023-04-05T01:01:57.824Z,9.18
2023-04-05T01:04:30.777Z,9.38
2023-04-05T01:07:08.819Z,10.43
2023-04-05T01:09:49.535Z,8.95
2023-04-05T01:12:22.485Z,10.23
2023-04-05T01:14:53.227Z,15.18
2023-04-05T01:17:24.747Z,9.75
2023-04-05T01:19:59.422Z,11.98
2023-04-05T01:23:04.187Z,9.75
2023-04-05T01:26:16.801Z,10.30
2023-04-05T01:29:09.993Z,12.18
2023-04-05T01:31:46.383Z,8.10
2023-04-05T01:34:25.882Z,10.45
2023-04-05T01:36:58.043Z,12.07
2023-04-05T01:39:31.358Z,12.27
2023-04-05T01:42:01.354Z,8.25
2023-04-05T01:44:30.855Z,14.57
2023-04-05T01:47:01.220Z,11.55
2023-04-05T01:49:33.185Z,8.38
2023-04-05T01:52:02.337Z,8.75
2023-04-05T01:54:31.558Z,12.00
2023-04-05T01:57:01.063Z,14.68
2023-04-05T01:59:30.327Z,11.70
2023-04-05T02:02:03.006Z,10.88
2023-04-05T02:04:32.192Z,8.13
2023-04-05T02:07:01.688Z,10.45
2023-04-05T02:09:30.742Z,10.23
2023-04-05T02:11:59.775Z,10.85
2023-04-05T02:14:29.062Z,13.07
2023-04-05T02:16:58.785Z,14.85
2023-04-05T02:19:30.045Z,11.43
2023-04-05T02:21:59.498Z,16.48
2023-04-05T02:24:28.953Z,9.15
2023-04-05T02:26:58.135Z,10.13
2023-04-05T02:29:27.654Z,13.57
2023-04-05T02:31:57.266Z,14.43
2023-04-05T02:34:27.395Z,13.88
2023-04-05T02:36:59.056Z,16.05
2023-04-05T02:39:29.548Z,15.27
2023-04-05T02:41:59.258Z,11.00
2023-04-05T02:44:29.632Z,12.07
2023-04-05T02:46:59.038Z,15.95
2023-04-05T02:49:33.295Z,8.95
2023-04-05T02:52:06.895Z,10.40
2023-04-05T02:54:36.914Z,13.15
2023-04-05T02:57:05.991Z,14.70
2023-04-05T02:59:45.733Z,12.32
2023-04-05T03:02:14.982Z,11.98
2023-04-05T03:04:46.756Z,11.15
2023-04-05T03:07:20.308Z,12.70
2023-04-05T03:09:51.562Z,11.10
2023-04-05T03:12:24.989Z,10.55
2023-04-05T03:14:54.676Z,10.48
2023-04-05T03:17:28.617Z,11.65
2023-04-05T03:20:06.606Z,14.90
2023-04-05T03:22:37.484Z,12.20
2023-04-05T03:25:10.303Z,10.68
2023-04-05T03:27:46.113Z,11.43
2023-04-05T03:30:18.827Z,10.98
2023-04-05T03:32:57.445Z,16.67
2023-04-05T03:35:47.612Z,15.13
2023-04-05T03:38:19.120Z,10.10
2023-04-05T03:41:19.974Z,16.55
2023-04-05T03:43:50.181Z,11.80
2023-04-05T03:46:24.449Z,14.70
2023-04-05T03:48:55.851Z,12.30
2023-04-05T03:51:24.996Z,15.10
2023-04-05T03:53:55.653Z,20.40
2023-04-05T03:56:28.906Z,14.90
2023-04-05T03:58:59.898Z,14.55
2023-04-05T04:01:31.327Z,12.27
2023-04-05T04:04:00.944Z,11.20
2023-04-05T04:06:32.715Z,15.05
2023-04-05T04:09:07.922Z,13.18
2023-04-05T04:11:36.717Z,17.42
2023-04-05T04:14:07.525Z,16.08
2023-04-05T04:17:02.366Z,16.00
2023-04-05T04:19:55.849Z,12.93
2023-04-05T04:22:45.925Z,14.20
2023-04-05T04:25:46.205Z,13.63
2023-04-05T04:28:39.271Z,16.02
2023-04-05T04:31:34.604Z,14.48
2023-04-05T04:34:26.662Z,17.25
2023-04-05T04:37:22.600Z,16.92
2023-04-05T04:40:12.482Z,11.73
2023-04-05T04:43:00.251Z,12.10
2023-04-05T04:46:00.129Z,10.23
2023-04-05T04:48:42.149Z,13.68
2023-04-05T04:51:26.232Z,14.10
2023-04-05T04:53:55.293Z,14.85
2023-04-05T04:56:24.138Z,15.43
2023-04-05T04:58:57.114Z,14.23
2023-04-05T05:01:26.736Z,18.55
2023-04-05T05:03:55.658Z,14.32
2023-04-05T05:06:31.446Z,22.98
2023-04-05T05:09:00.171Z,19.00
2023-04-05T05:11:30.220Z,20.42
2023-04-05T05:14:03.579Z,22.80
2023-04-05T05:16:34.612Z,15.47
2023-04-05T05:19:03.484Z,28.38
2023-04-05T05:21:41.834Z,36.83
2023-04-05T05:24:11.807Z,51.50
2023-04-05T05:26:40.749Z,106.85
2023-04-05T05:29:13.335Z,113.68
2023-04-05T05:34:17.486Z,106.80
2023-04-05T05:36:51.633Z,100.43
2023-04-05T05:39:20.654Z,72.30
2023-04-05T05:41:49.346Z,63.92
2023-04-05T05:44:19.451Z,53.42
2023-04-05T05:46:48.414Z,50.05
2023-04-05T05:49:18.877Z,35.25
2023-04-05T05:51:47.610Z,30.15
2023-04-05T05:54:16.340Z,24.98
2023-04-05T05:56:45.186Z,30.33
2023-04-05T05:59:14.057Z,25.13
2023-04-05T06:01:46.724Z,25.65
2023-04-05T06:04:22.944Z,19.85
2023-04-05T06:06:51.803Z,39.05
2023-04-05T06:09:20.466Z,19.10
2023-04-05T06:11:56.348Z,14.75
2023-04-05T06:14:26.463Z,13.75
2023-04-05T06:16:56.592Z,15.35
2023-04-05T06:19:25.443Z,16.45
2023-04-05T06:21:55.116Z,16.40
2023-04-05T06:24:23.975Z,17.35
2023-04-05T06:26:53.006Z,14.52
2023-04-05T06:29:21.791Z,14.32
2023-04-05T06:31:51.199Z,13.90
2023-04-05T06:34:23.964Z,14.23
2023-04-05T06:36:52.851Z,16.58
2023-04-05T06:39:21.761Z,17.25
2023-04-05T06:41:50.424Z,14.90
2023-04-05T06:44:22.691Z,14.57
2023-04-05T06:46:53.621Z,16.60
2023-04-05T06:49:23.786Z,14.60
2023-04-05T06:51:52.619Z,15.13
2023-04-05T06:54:25.008Z,13.77
2023-04-05T06:56:57.391Z,16.67
2023-04-05T06:59:27.505Z,15.23
2023-04-05T07:01:56.522Z,14.70
2023-04-05T07:04:29.450Z,13.07
2023-04-05T07:06:58.812Z,11.82
2023-04-05T07:09:30.277Z,18.25
2023-04-05T07:11:58.976Z,11.18
2023-04-05T07:14:27.707Z,14.20
2023-04-05T07:16:56.685Z,14.38
2023-04-05T07:19:27.366Z,15.27
2023-04-05T07:21:56.804Z,18.67
2023-04-05T07:24:25.778Z,21.95
2023-04-05T07:26:55.081Z,20.40
2023-04-05T07:29:23.927Z,13.00
2023-04-05T07:31:52.733Z,14.80
2023-04-05T07:34:21.429Z,12.82
2023-04-05T07:36:51.512Z,17.23
2023-04-05T07:39:21.380Z,10.80
2023-04-05T07:41:51.705Z,14.38
2023-04-05T07:44:24.416Z,9.52
2023-04-05T07:46:53.218Z,12.15
2023-04-05T07:49:27.298Z,12.73
2023-04-05T07:51:57.854Z,14.27
2023-04-05T07:54:26.870Z,12.38
2023-04-05T07:56:58.183Z,13.68
2023-04-05T07:59:27.113Z,11.10
2023-04-05T08:01:57.219Z,14.35
2023-04-05T08:04:30.953Z,11.52
2023-04-05T08:07:01.367Z,13.65
2023-04-05T08:09:30.162Z,12.38
2023-04-05T08:11:58.820Z,11.75
2023-04-05T08:14:27.510Z,9.82
2023-04-05T08:16:58.827Z,11.52
2023-04-05T08:19:27.753Z,10.77
2023-04-05T08:21:56.502Z,14.70
2023-04-05T08:24:26.737Z,13.65
2023-04-05T08:26:56.342Z,11.68
2023-04-05T08:29:27.756Z,12.07
2023-04-05T08:31:57.907Z,8.68
2023-04-05T08:34:26.920Z,12.55
2023-04-05T08:37:00.194Z,10.60
2023-04-05T08:39:30.828Z,12.55
2023-04-05T08:42:05.533Z,9.90
2023-04-05T08:44:38.985Z,9.60
2023-04-05T08:47:10.369Z,13.73
2023-04-05T08:49:39.203Z,17.23
2023-04-05T08:52:08.043Z,8.48
2023-04-05T08:54:40.754Z,7.88
2023-04-05T08:57:10.761Z,12.02
2023-04-05T08:59:40.842Z,11.00
2023-04-05T09:02:16.372Z,11.02
2023-04-05T09:04:49.614Z,12.90
2023-04-05T09:07:19.203Z,11.93
2023-04-05T09:09:57.160Z,12.10
2023-04-05T09:12:26.917Z,10.25
2023-04-05T09:14:59.962Z,7.93
2023-04-05T09:17:30.102Z,11.35
2023-04-05T09:19:58.786Z,9.57
2023-04-05T09:22:30.025Z,7.63
2023-04-05T09:25:01.275Z,11.65
2023-04-05T09:27:29.995Z,6.72
2023-04-05T09:30:01.403Z,7.07
2023-04-05T09:32:30.398Z,8.43
2023-04-05T09:35:04.121Z,8.95
2023-04-05T09:37:35.780Z,7.57
2023-04-05T09:40:07.618Z,18.52
2023-04-05T09:42:46.229Z,10.00
2023-04-05T09:45:16.259Z,10.55
2023-04-05T09:47:56.639Z,7.65
2023-04-05T09:50:25.548Z,12.38
2023-04-05T09:53:08.855Z,9.52
2023-04-05T09:55:40.677Z,7.28
2023-04-05T09:58:13.621Z,12.95
2023-04-05T10:00:59.925Z,11.32
2023-04-05T10:03:32.081Z,10.70
2023-04-05T10:06:01.191Z,9.13
2023-04-05T10:08:30.181Z,9.48
2023-04-05T10:11:02.661Z,9.93
2023-04-05T10:13:31.743Z,9.23
2023-04-05T10:16:03.666Z,9.25
2023-04-05T10:18:41.627Z,9.77
2023-04-05T10:21:12.819Z,9.57
2023-04-05T10:23:45.985Z,10.52
2023-04-05T10:28:57.499Z,9.35
2023-04-05T10:31:37.578Z,9.00
2023-04-05T10:34:08.560Z,9.40
2023-04-05T10:36:43.426Z,9.40
2023-04-05T10:39:24.106Z,11.25
2023-04-05T10:41:57.960Z,10.55
2023-04-05T10:44:27.404Z,9.70
2023-04-05T10:46:58.244Z,9.13
2023-04-05T10:49:35.637Z,8.00
2023-04-05T10:52:05.280Z,9.98
2023-04-05T10:54:36.762Z,7.72
2023-04-05T10:57:11.931Z,11.93
2023-04-05T10:59:44.109Z,9.35
2023-04-05T11:02:13.534Z,9.60
2023-04-05T11:04:44.970Z,9.82
2023-04-05T11:07:15.532Z,7.50
2023-04-05T11:09:57.154Z,8.77
2023-04-05T11:13:03.076Z,12.98
2023-04-05T11:15:34.835Z,10.48
2023-04-05T11:18:05.789Z,16.85
2023-04-05T11:20:42.748Z,8.30
2023-04-05T11:23:12.458Z,11.98
2023-04-05T11:25:42.224Z,10.88
2023-04-05T11:28:24.126Z,8.18
2023-04-05T11:30:57.073Z,7.80
2023-04-05T11:36:07.614Z,8.88
2023-04-05T11:38:40.989Z,9.23
2023-04-05T11:41:17.566Z,7.22
2023-04-05T11:43:47.569Z,8.13
2023-04-05T11:46:18.446Z,9.05
2023-04-05T11:48:50.659Z,12.38
2023-04-05T11:51:23.816Z,7.75
2023-04-05T11:53:52.612Z,9.38
2023-04-05T11:56:21.367Z,8.13
2023-04-05T11:58:50.136Z,7.50
2023-04-05T12:01:22.937Z,6.97
2023-04-05T12:03:55.602Z,10.50
2023-04-05T12:06:26.138Z,6.70
2023-04-05T12:08:56.194Z,8.35
2023-04-05T12:11:27.256Z,9.73
2023-04-05T12:13:58.631Z,8.82
2023-04-05T12:16:29.165Z,11.98
2023-04-05T12:18:59.366Z,13.77
2023-04-05T12:21:28.826Z,11.63
2023-04-05T12:23:57.995Z,9.25
2023-04-05T12:26:27.017Z,9.98
2023-04-05T12:28:56.993Z,14.20
2023-04-05T12:31:41.454Z,12.60
2023-04-05T12:34:11.583Z,10.10
2023-04-05T12:36:40.847Z,9.02
2023-04-05T12:39:11.014Z,9.05
2023-04-05T12:41:40.189Z,9.80
2023-04-05T12:44:16.008Z,8.93
2023-04-05T12:46:47.429Z,12.23
2023-04-05T12:49:17.459Z,9.40
2023-04-05T12:51:47.303Z,11.60
2023-04-05T12:54:16.840Z,8.15
2023-04-05T12:56:45.626Z,12.52
2023-04-05T12:59:14.437Z,9.77
2023-04-05T13:01:43.170Z,9.35
2023-04-05T13:04:16.566Z,12.98
2023-04-05T13:06:48.169Z,8.93
2023-04-05T13:09:17.323Z,9.18
2023-04-05T13:11:46.155Z,11.15
2023-04-05T13:14:15.519Z,8.02
2023-04-05T13:16:44.255Z,11.73
2023-04-05T13:19:14.474Z,10.40
2023-04-05T13:21:43.235Z,11.23
2023-04-05T13:24:13.007Z,17.30
2023-04-05T13:26:41.964Z,11.07
2023-04-05T13:29:10.704Z,12.68
2023-04-05T13:31:40.912Z,11.88
2023-04-05T13:34:09.785Z,13.70
2023-04-05T13:36:39.921Z,10.52
2023-04-05T13:39:08.676Z,11.30
2023-04-05T13:41:37.438Z,11.23
2023-04-05T13:44:06.819Z,11.63
2023-04-05T13:46:35.909Z,10.93
2023-04-05T13:49:04.702Z,11.15
2023-04-05T13:51:34.525Z,11.75
2023-04-05T13:54:05.068Z,9.00
2023-04-05T13:56:34.042Z,13.05
2023-04-05T13:59:02.951Z,18.67
2023-04-05T14:01:35.779Z,16.88
2023-04-05T14:04:04.546Z,15.55
2023-04-05T14:06:35.856Z,12.25
2023-04-05T14:09:06.115Z,10.65
2023-04-05T14:11:35.374Z,9.43
2023-04-05T14:14:04.596Z,13.00
2023-04-05T14:16:33.598Z,11.18
2023-04-05T14:19:02.669Z,11.38
2023-04-05T14:21:31.775Z,10.95
2023-04-05T14:24:00.690Z,14.40
2023-04-05T14:26:31.230Z,12.55
2023-04-05T14:29:00.160Z,12.82
2023-04-05T14:31:29.386Z,10.80
2023-04-05T14:34:00.920Z,12.70
2023-04-05T14:36:29.813Z,13.02
2023-04-05T14:38:58.630Z,14.00
2023-04-05T14:41:28.249Z,15.70
2023-04-05T14:43:58.520Z,14.80
2023-04-05T14:46:27.350Z,14.95
2023-04-05T14:48:56.197Z,12.27
2023-04-05T14:51:25.171Z,12.55
2023-04-05T14:53:54.014Z,13.25
2023-04-05T14:56:25.893Z,15.68
2023-04-05T14:58:54.672Z,12.68
2023-04-05T15:01:24.884Z,16.40
2023-04-05T15:03:53.979Z,14.30
2023-04-05T15:06:22.909Z,16.05
2023-04-05T15:08:52.338Z,22.38
2023-04-05T15:11:21.750Z,15.73
2023-04-05T15:13:50.588Z,15.65
2023-04-05T15:16:19.451Z,12.48
2023-04-05T15:18:52.037Z,13.90
2023-04-05T15:21:21.064Z,14.38
2023-04-05T15:23:52.090Z,18.50
2023-04-05T15:26:21.013Z,18.30
2023-04-05T15:28:53.005Z,13.90
2023-04-05T15:31:24.119Z,16.85
2023-04-05T15:33:54.341Z,14.13
2023-04-05T15:36:23.106Z,14.80
2023-04-05T15:38:51.920Z,11.77
2023-04-05T15:41:20.777Z,15.43
2023-04-05T15:43:49.619Z,16.33
2023-04-05T15:46:18.543Z,13.75
2023-04-05T15:48:47.379Z,15.48
2023-04-05T15:51:17.590Z,16.67
2023-04-05T15:53:46.643Z,14.73
2023-04-05T15:56:15.453Z,24.00
2023-04-05T15:58:44.269Z,15.13
2023-04-05T16:01:13.183Z,14.93
2023-04-05T16:03:42.758Z,15.10
2023-04-05T16:06:18.368Z,15.77
2023-04-05T16:08:47.169Z,13.18
2023-04-05T16:11:16.024Z,19.08
2023-04-05T16:13:47.201Z,16.23
2023-04-05T16:16:29.841Z,17.40
2023-04-05T16:19:08.122Z,21.60
2023-04-05T16:21:38.519Z,17.83
2023-04-05T16:24:07.912Z,16.40
2023-04-05T16:26:36.830Z,15.40
2023-04-05T16:29:05.762Z,35.30
2023-04-05T16:31:35.834Z,22.45
2023-04-05T16:34:04.784Z,18.05
2023-04-05T16:36:33.691Z,19.85
2023-04-05T16:39:04.265Z,16.02
2023-04-05T16:41:34.718Z,16.88
2023-04-05T16:44:03.793Z,16.20
2023-04-05T16:46:47.538Z,22.38
2023-04-05T16:49:16.925Z,19.45
2023-04-05T16:51:45.740Z,16.08
2023-04-05T16:54:16.709Z,16.88
2023-04-05T16:56:45.536Z,17.45
2023-04-05T16:59:14.385Z,16.45
2023-04-05T17:01:43.319Z,20.27
2023-04-05T17:04:12.234Z,15.38
2023-04-05T17:06:40.934Z,17.73
2023-04-05T17:09:11.996Z,29.98
2023-04-05T17:11:44.425Z,29.45
2023-04-05T17:14:13.305Z,32.13
2023-04-05T17:16:42.627Z,30.23
2023-04-05T17:19:13.791Z,29.40
2023-04-05T17:21:45.142Z,35.13
2023-04-05T17:24:14.022Z,32.83
2023-04-05T17:26:44.198Z,34.67
2023-04-05T17:29:13.674Z,30.75
2023-04-05T17:31:44.102Z,33.67
2023-04-05T17:34:15.073Z,33.97
2023-04-05T17:36:45.126Z,36.72
2023-04-05T17:39:14.023Z,33.90
2023-04-05T17:41:46.890Z,31.48
2023-04-05T17:44:19.061Z,34.53
2023-04-05T17:46:57.326Z,30.98
2023-04-05T17:49:36.446Z,29.13
2023-04-05T17:52:05.605Z,31.88
2023-04-05T17:54:37.148Z,34.35
2023-04-05T17:57:15.095Z,33.20
2023-04-05T17:59:44.884Z,34.13
2023-04-05T18:02:14.122Z,32.78
2023-04-05T18:04:45.986Z,29.92
2023-04-05T18:07:14.880Z,31.02
2023-04-05T18:09:46.546Z,34.03
2023-04-05T18:12:16.872Z,34.55
2023-04-05T18:14:45.841Z,35.85
2023-04-05T18:17:14.827Z,34.65
2023-04-05T18:19:43.839Z,34.00
2023-04-05T18:22:12.760Z,37.35
2023-04-05T18:24:42.482Z,34.65
2023-04-05T18:27:11.945Z,38.28
2023-04-05T18:29:42.861Z,35.08
2023-04-05T18:32:12.111Z,32.85
2023-04-05T18:34:41.539Z,34.80
2023-04-05T18:37:11.055Z,38.20
2023-04-05T18:39:40.165Z,33.70
2023-04-05T18:42:09.195Z,36.63
2023-04-05T18:44:38.004Z,34.55
2023-04-05T18:47:08.160Z,37.33
2023-04-05T18:49:37.151Z,44.30
2023-04-05T18:52:05.923Z,36.30
2023-04-05T18:54:34.738Z,35.95
2023-04-05T18:57:03.527Z,40.90
2023-04-05T18:59:32.332Z,37.30
2023-04-05T19:02:01.168Z,33.35
2023-04-05T19:04:31.986Z,34.28
2023-04-05T19:07:00.830Z,36.63
2023-04-05T19:09:29.649Z,46.15
2023-04-05T19:11:58.771Z,34.42
2023-04-05T19:14:31.318Z,33.35
2023-04-05T19:17:00.188Z,36.88
2023-04-05T19:19:31.056Z,35.83
2023-04-05T19:21:59.837Z,40.35
2023-04-05T19:24:29.703Z,38.53
2023-04-05T19:26:58.636Z,43.83
2023-04-05T19:29:27.433Z,38.78
2023-04-05T19:31:57.228Z,36.00
2023-04-05T19:34:26.503Z,38.15
2023-04-05T19:36:57.587Z,39.20
2023-04-05T19:39:26.380Z,39.15
2023-04-05T19:41:56.224Z,46.22
2023-04-05T19:44:50.804Z,39.45
2023-04-05T19:47:21.163Z,37.65
2023-04-05T19:49:51.300Z,37.15
2023-04-05T19:52:39.184Z,41.25
2023-04-05T19:55:32.332Z,40.35
2023-04-05T19:58:02.821Z,37.65
2023-04-05T20:00:37.281Z,38.97
2023-04-05T20:03:28.759Z,34.97
2023-04-05T20:06:08.868Z,37.90
2023-04-05T20:08:40.802Z,35.92
2023-04-05T20:11:11.904Z,40.40
2023-04-05T20:13:45.173Z,45.10
2023-04-05T20:16:16.747Z,160.27
2023-04-05T20:18:49.273Z,122.53
2023-04-05T20:21:19.214Z,56.83
2023-04-05T20:23:50.711Z,58.95
2023-04-05T20:26:26.426Z,35.50
2023-04-05T20:28:56.274Z,38.55
2023-04-05T20:31:29.568Z,43.70
2023-04-05T20:34:00.005Z,41.60
2023-04-05T20:36:33.365Z,39.00
2023-04-05T20:41:33.161Z,43.65
2023-04-05T20:44:02.238Z,41.58
2023-04-05T20:46:32.436Z,40.33
2023-04-05T20:49:04.341Z,39.25
2023-04-05T20:51:36.464Z,42.70
2023-04-05T20:54:09.135Z,42.70
2023-04-05T20:56:38.055Z,38.58
2023-04-05T20:59:07.235Z,37.38
2023-04-05T21:01:38.736Z,38.90
2023-04-05T21:04:07.702Z,39.08
2023-04-05T21:06:37.570Z,35.13
2023-04-05T21:09:08.591Z,38.85
2023-04-05T21:11:37.776Z,42.92
2023-04-05T21:14:06.719Z,40.42
2023-04-05T21:16:37.885Z,44.92
2023-04-05T21:19:06.994Z,43.17
2023-04-05T21:21:36.220Z,43.03
2023-04-05T21:24:05.219Z,41.28
2023-04-05T21:26:35.429Z,47.28
2023-04-05T21:29:07.085Z,42.67
2023-04-05T21:31:38.584Z,51.20
2023-04-05T21:34:07.441Z,38.15
2023-04-05T21:36:36.245Z,38.50
2023-04-05T21:39:05.518Z,47.72
2023-04-05T21:41:35.736Z,43.47
2023-04-05T21:44:07.148Z,42.35
2023-04-05T21:46:35.998Z,45.58
2023-04-05T21:49:05.882Z,47.95
2023-04-05T21:51:34.804Z,45.15
2023-04-05T21:54:03.589Z,47.33
2023-04-05T21:56:32.503Z,44.33
2023-04-05T21:59:02.726Z,43.15
2023-04-05T22:01:31.604Z,52.03
2023-04-05T22:04:00.345Z,49.15
2023-04-05T22:06:29.335Z,52.78
2023-04-05T22:08:58.112Z,45.15
2023-04-05T22:11:27.598Z,47.78
2023-04-05T22:13:58.672Z,43.63
2023-04-05T22:16:28.913Z,44.85
2023-04-05T22:18:58.021Z,46.80
2023-04-05T22:21:27.001Z,41.70
2023-04-05T22:23:55.932Z,48.08
2023-04-05T22:26:24.782Z,48.70
2023-04-05T22:28:53.582Z,47.67
2023-04-05T22:31:22.457Z,46.47
2023-04-05T22:33:54.794Z,48.53
2023-04-05T22:36:23.731Z,49.28
2023-04-05T22:38:54.277Z,48.45
2023-04-05T22:41:23.430Z,51.30
2023-04-05T22:43:54.615Z,63.80
2023-04-05T22:46:23.481Z,53.45
2023-04-05T22:48:56.271Z,53.47
2023-04-05T22:51:27.702Z,50.45
2023-04-05T22:53:56.564Z,52.03
2023-04-05T22:56:27.708Z,49.67
2023-04-05T22:58:56.665Z,54.45
2023-04-05T23:01:25.769Z,53.58
2023-04-05T23:03:55.987Z,54.38
2023-04-05T23:06:27.856Z,54.00
2023-04-05T23:08:58.540Z,49.35
2023-04-05T23:11:29.800Z,47.45
2023-04-05T23:14:01.141Z,51.90
2023-04-05T23:16:32.958Z,50.50
2023-04-05T23:19:05.921Z,45.53
2023-04-05T23:21:34.795Z,41.00
2023-04-05T23:24:07.199Z,43.70
2023-04-05T23:26:36.293Z,40.88
2023-04-05T23:29:07.792Z,39.80
2023-04-05T23:31:36.915Z,37.88
2023-04-05T23:34:09.570Z,32.40
2023-04-05T23:36:38.793Z,29.80
2023-04-05T23:39:07.970Z,31.48
2023-04-05T23:41:39.274Z,28.15
2023-04-05T23:44:08.240Z,34.20
2023-04-05T23:46:37.139Z,32.13
2023-04-05T23:49:06.481Z,28.85
2023-04-05T23:51:39.026Z,26.95
2023-04-05T23:54:10.332Z,28.00
2023-04-05T23:56:39.768Z,29.50
2023-04-05T23:59:08.765Z,31.42
